Terminal Aerodrome Forecast
Issued by NWS

Home | Current Version | Previous Version | Text Only | Print | Product List | Glossary On
Versions: 1 2 3 4 5 6 7 8 9 10 11 12 13
000
FTAK31 PANC 141148
TAFAGK
TAF
PAGK 141148Z 1412/1512 34006KT P6SM VCSH SCT008 OVC060
      TEMPO 1412/1416 OVC008
     FM141600 33004KT 4SM -SN BR SCT010 OVC025
     FM150300 16009G16KT P6SM VCSH SCT025 BKN040=

USA.gov is the U.S. government's official web portal to all federal, state and local government web resources and services.